createdAt,value
2023-03-16T00:00:19.671Z,95253.00
2023-03-16T00:04:19.372Z,95253.00
2023-03-16T00:08:19.033Z,95257.00
2023-03-16T00:12:18.693Z,95255.00
2023-03-16T00:16:18.320Z,95251.00
2023-03-16T00:20:17.963Z,95251.00
2023-03-16T00:24:17.575Z,95257.00
2023-03-16T00:28:17.227Z,95259.00
2023-03-16T00:32:16.829Z,95265.00
2023-03-16T00:36:16.466Z,95263.00
2023-03-16T00:40:16.120Z,95259.00
2023-03-16T00:44:15.912Z,95255.00
2023-03-16T00:48:15.534Z,95257.00
2023-03-16T00:52:15.189Z,95265.00
2023-03-16T00:56:14.802Z,95263.00
2023-03-16T01:00:14.450Z,95261.00
2023-03-16T01:04:14.069Z,95251.00
2023-03-16T01:08:13.706Z,95253.00
2023-03-16T01:12:13.326Z,95251.00
2023-03-16T01:16:12.954Z,95245.00
2023-03-16T01:20:12.628Z,95247.00
2023-03-16T01:24:12.212Z,95253.00
2023-03-16T01:28:11.916Z,95253.00
2023-03-16T01:32:11.796Z,95257.00
2023-03-16T01:36:11.611Z,95257.00
2023-03-16T01:40:11.360Z,95259.00
2023-03-16T01:44:11.049Z,95263.00
2023-03-16T01:48:10.738Z,95261.00
2023-03-16T01:52:10.432Z,95259.00
2023-03-16T01:56:10.152Z,95255.00
2023-03-16T02:00:09.886Z,95259.00
2023-03-16T02:04:09.594Z,95259.00
2023-03-16T02:08:09.220Z,95259.00
2023-03-16T02:12:08.916Z,95259.00
2023-03-16T02:16:08.714Z,95263.00
2023-03-16T02:20:08.353Z,95263.00
2023-03-16T02:24:08.091Z,95265.00
2023-03-16T02:28:07.805Z,95261.00
2023-03-16T02:32:07.534Z,95263.00
2023-03-16T02:36:07.387Z,95267.00
2023-03-16T02:40:06.974Z,95269.00
2023-03-16T02:44:06.730Z,95265.00
2023-03-16T02:48:06.510Z,95261.00
2023-03-16T02:52:06.293Z,95263.00
2023-03-16T02:56:05.999Z,95265.00
2023-03-16T03:00:05.698Z,95267.00
2023-03-16T03:04:05.439Z,95269.00
2023-03-16T03:08:05.063Z,95267.00
2023-03-16T03:12:04.770Z,95275.00
2023-03-16T03:16:04.501Z,95280.00
2023-03-16T03:20:04.146Z,95280.00
2023-03-16T03:24:03.934Z,95282.00
2023-03-16T03:28:03.618Z,95286.00
2023-03-16T03:32:03.269Z,95288.00
2023-03-16T03:36:03.123Z,95288.00
2023-03-16T03:40:02.711Z,95288.00
2023-03-16T03:44:02.472Z,95282.00
2023-03-16T03:48:02.156Z,95284.00
2023-03-16T03:52:01.866Z,95280.00
2023-03-16T03:56:01.573Z,95282.00
2023-03-16T04:00:01.246Z,95288.00
2023-03-16T04:04:00.961Z,95290.00
2023-03-16T04:08:00.613Z,95284.00
2023-03-16T04:12:00.320Z,95288.00
2023-03-16T04:16:00.091Z,95288.00
2023-03-16T04:19:59.701Z,95286.00
2023-03-16T04:23:59.440Z,95286.00
2023-03-16T04:27:59.152Z,95284.00
2023-03-16T04:31:58.825Z,95286.00
2023-03-16T04:35:58.568Z,95282.00
2023-03-16T04:39:58.238Z,95282.00
2023-03-16T04:43:57.953Z,95280.00
2023-03-16T04:47:57.714Z,95278.00
2023-03-16T04:51:57.544Z,95275.00
2023-03-16T04:55:57.160Z,95271.00
2023-03-16T04:59:56.928Z,95271.00
2023-03-16T05:03:58.607Z,95269.00
2023-03-16T05:07:56.380Z,95271.00
2023-03-16T05:11:56.030Z,95275.00
2023-03-16T05:15:55.810Z,95275.00
2023-03-16T05:19:55.395Z,95282.00
2023-03-16T05:23:55.103Z,95282.00
2023-03-16T05:27:54.694Z,95286.00
2023-03-16T05:31:54.350Z,95284.00
2023-03-16T05:35:54.107Z,95288.00
2023-03-16T05:39:53.711Z,95288.00
2023-03-16T05:43:53.421Z,95292.00
2023-03-16T05:47:53.082Z,95292.00
2023-03-16T05:51:52.708Z,95288.00
2023-03-16T05:55:52.398Z,95292.00
2023-03-16T05:59:52.068Z,95294.00
2023-03-16T06:03:51.915Z,95294.00
2023-03-16T06:07:51.425Z,95294.00
2023-03-16T06:11:51.046Z,95296.00
2023-03-16T06:15:50.772Z,95300.00
2023-03-16T06:19:50.362Z,95304.00
2023-03-16T06:23:50.091Z,95306.00
2023-03-16T06:27:49.872Z,95308.00
2023-03-16T06:31:49.721Z,95316.00
2023-03-16T06:35:49.535Z,95314.00
2023-03-16T06:39:49.486Z,95308.00
2023-03-16T06:43:49.491Z,95314.00
2023-03-16T06:47:49.024Z,95320.00
2023-03-16T06:51:49.015Z,95312.00
2023-03-16T06:55:49.018Z,95310.00
2023-03-16T06:59:48.982Z,95308.00
2023-03-16T07:03:48.316Z,95304.00
2023-03-16T07:07:47.966Z,95314.00
2023-03-16T07:11:47.646Z,95306.00
2023-03-16T07:15:47.480Z,95304.00
2023-03-16T07:19:46.974Z,95304.00
2023-03-16T07:23:46.679Z,95304.00
2023-03-16T07:27:46.502Z,95296.00
2023-03-16T07:31:46.135Z,95296.00
2023-03-16T07:35:45.852Z,95302.00
2023-03-16T07:39:47.522Z,95310.00
2023-03-16T07:43:45.470Z,95308.00
2023-03-16T07:47:45.529Z,95312.00
2023-03-16T07:51:45.077Z,95308.00
2023-03-16T07:55:45.038Z,95306.00
2023-03-16T07:59:44.343Z,95304.00
2023-03-16T08:03:44.053Z,95306.00
2023-03-16T08:07:43.811Z,95304.00
2023-03-16T08:11:43.508Z,95302.00
2023-03-16T08:15:43.232Z,95300.00
2023-03-16T08:19:42.884Z,95294.00
2023-03-16T08:23:43.084Z,95288.00
2023-03-16T08:27:42.295Z,95290.00
2023-03-16T08:31:42.122Z,95284.00
2023-03-16T08:35:41.691Z,95278.00
2023-03-16T08:39:41.537Z,95276.00
2023-03-16T08:43:41.557Z,95278.00
2023-03-16T08:47:41.040Z,95280.00
2023-03-16T08:51:40.739Z,95278.00
2023-03-16T08:55:40.395Z,95275.00
2023-03-16T08:59:40.320Z,95271.00
2023-03-16T09:03:40.073Z,95263.00
2023-03-16T09:07:40.052Z,95259.00
2023-03-16T09:11:39.593Z,95257.00
2023-03-16T09:15:39.574Z,95257.00
2023-03-16T09:19:53.809Z,95257.00
2023-03-16T09:23:39.765Z,95247.00
2023-03-16T09:27:38.466Z,95239.00
2023-03-16T09:31:38.644Z,95231.00
2023-03-16T09:35:38.128Z,95235.00
2023-03-16T09:39:38.063Z,95227.00
2023-03-16T09:43:37.534Z,95227.00
2023-03-16T09:47:37.623Z,95223.00
2023-03-16T09:51:37.579Z,95218.00
2023-03-16T09:55:37.568Z,95216.00
2023-03-16T09:59:37.550Z,95212.00
2023-03-16T10:03:37.031Z,95204.00
2023-03-16T10:07:36.711Z,95202.00
2023-03-16T10:11:36.570Z,95192.00
2023-03-16T10:15:36.314Z,95184.00
2023-03-16T10:19:36.139Z,95180.00
2023-03-16T10:23:36.032Z,95174.00
2023-03-16T10:27:36.112Z,95169.00
2023-03-16T10:31:35.623Z,95165.00
2023-03-16T10:35:35.561Z,95159.00
2023-03-16T10:39:35.298Z,95157.00
2023-03-16T10:43:35.561Z,95157.00
2023-03-16T10:47:35.117Z,95147.00
2023-03-16T10:51:35.067Z,95135.00
2023-03-16T10:55:34.502Z,95133.00
2023-03-16T10:59:34.595Z,95129.00
2023-03-16T11:03:35.187Z,95129.00
2023-03-16T11:07:33.762Z,95127.00
2023-03-16T11:11:33.533Z,95121.00
2023-03-16T11:15:33.191Z,95121.00
2023-03-16T11:19:32.773Z,95112.00
2023-03-16T11:23:32.431Z,95104.00
2023-03-16T11:27:32.052Z,95094.00
2023-03-16T11:31:31.809Z,95086.00
2023-03-16T11:35:31.642Z,95080.00
2023-03-16T11:39:31.102Z,95069.00
2023-03-16T11:43:31.097Z,95063.00
2023-03-16T11:47:30.226Z,95057.00
2023-03-16T11:51:30.133Z,95053.00
2023-03-16T11:55:29.870Z,95049.00
2023-03-16T11:59:29.177Z,95043.00
2023-03-16T12:03:28.940Z,95033.00
2023-03-16T12:07:28.526Z,95027.00
2023-03-16T12:11:28.604Z,95014.00
2023-03-16T12:15:28.477Z,95010.00
2023-03-16T12:19:27.958Z,95000.00
2023-03-16T12:23:28.969Z,94992.00
2023-03-16T12:27:27.616Z,94988.00
2023-03-16T12:31:27.668Z,94980.00
2023-03-16T12:35:28.138Z,94980.00
2023-03-16T12:39:27.169Z,94971.00
2023-03-16T12:43:27.065Z,94967.00
2023-03-16T12:47:27.130Z,94953.00
2023-03-16T12:51:26.753Z,94949.00
2023-03-16T12:55:26.596Z,94937.00
2023-03-16T12:59:26.124Z,94935.00
2023-03-16T13:03:25.713Z,94933.00
2023-03-16T13:07:25.634Z,94929.00
2023-03-16T13:11:24.940Z,94927.00
2023-03-16T13:15:24.607Z,94927.00
2023-03-16T13:19:24.264Z,94920.00
2023-03-16T13:23:24.176Z,94918.00
2023-03-16T13:27:23.535Z,94912.00
2023-03-16T13:31:23.207Z,94908.00
2023-03-16T13:35:22.765Z,94904.00
2023-03-16T13:39:22.644Z,94900.00
2023-03-16T13:43:22.108Z,94900.00
2023-03-16T13:47:21.906Z,94894.00
2023-03-16T13:51:22.145Z,94892.00
2023-03-16T13:55:21.470Z,94886.00
2023-03-16T13:59:21.391Z,94886.00
2023-03-16T14:03:21.106Z,94890.00
2023-03-16T14:07:21.158Z,94888.00
2023-03-16T14:11:21.163Z,94876.00
2023-03-16T14:15:20.661Z,94878.00
2023-03-16T14:19:20.668Z,94874.00
2023-03-16T14:23:20.209Z,94876.00
2023-03-16T14:27:19.987Z,94876.00
2023-03-16T14:31:19.935Z,94874.00
2023-03-16T14:35:19.687Z,94878.00
2023-03-16T14:39:19.528Z,94869.00
2023-03-16T14:43:19.332Z,94869.00
2023-03-16T14:47:19.186Z,94872.00
2023-03-16T14:51:18.980Z,94874.00
2023-03-16T14:55:19.189Z,94874.00
2023-03-16T14:59:18.564Z,94876.00
2023-03-16T15:03:18.372Z,94871.00
2023-03-16T15:07:18.692Z,94867.00
2023-03-16T15:11:18.165Z,94869.00
2023-03-16T15:15:17.848Z,94865.00
2023-03-16T15:19:17.685Z,94857.00
2023-03-16T15:23:17.422Z,94861.00
2023-03-16T15:27:17.220Z,94865.00
2023-03-16T15:31:16.957Z,94871.00
2023-03-16T15:35:16.676Z,94869.00
2023-03-16T15:39:16.352Z,94863.00
2023-03-16T15:43:16.084Z,94867.00
2023-03-16T15:47:15.911Z,94865.00
2023-03-16T15:51:15.608Z,94863.00
2023-03-16T15:55:15.502Z,94863.00
2023-03-16T15:59:15.215Z,94861.00
2023-03-16T16:03:15.053Z,94861.00
2023-03-16T16:07:14.845Z,94867.00
2023-03-16T16:11:14.673Z,94863.00
2023-03-16T16:15:14.492Z,94863.00
2023-03-16T16:19:14.316Z,94869.00
2023-03-16T16:23:14.134Z,94865.00
2023-03-16T16:27:13.995Z,94869.00
2023-03-16T16:31:13.864Z,94869.00
2023-03-16T16:35:13.624Z,94876.00
2023-03-16T16:39:13.454Z,94878.00
2023-03-16T16:43:13.315Z,94886.00
2023-03-16T16:47:13.121Z,94878.00
2023-03-16T16:51:12.950Z,94892.00
2023-03-16T16:55:12.761Z,94896.00
2023-03-16T16:59:12.587Z,94900.00
2023-03-16T17:03:12.411Z,94906.00
2023-03-16T17:07:12.233Z,94908.00
2023-03-16T17:11:12.056Z,94916.00
2023-03-16T17:15:11.965Z,94925.00
2023-03-16T17:19:11.716Z,94935.00
2023-03-16T17:23:11.523Z,94935.00
2023-03-16T17:27:11.351Z,94943.00
2023-03-16T17:31:11.271Z,94949.00
2023-03-16T17:35:11.048Z,94957.00
2023-03-16T17:39:10.872Z,94963.00
2023-03-16T17:43:10.791Z,94969.00
2023-03-16T17:47:10.682Z,94974.00
2023-03-16T17:51:10.500Z,94982.00
2023-03-16T17:55:10.360Z,94986.00
2023-03-16T17:59:10.228Z,94992.00
2023-03-16T18:03:09.846Z,94988.00
2023-03-16T18:07:09.498Z,94988.00
2023-03-16T18:11:09.738Z,94998.00
2023-03-16T18:15:08.693Z,95006.00
2023-03-16T18:19:08.330Z,95006.00
2023-03-16T18:23:07.953Z,95008.00
2023-03-16T18:27:09.314Z,95010.00
2023-03-16T18:31:07.266Z,95014.00
2023-03-16T18:35:06.873Z,95018.00
2023-03-16T18:39:06.487Z,95020.00
2023-03-16T18:43:06.138Z,95024.00
2023-03-16T18:47:05.824Z,95024.00
2023-03-16T18:51:05.397Z,95024.00
2023-03-16T18:55:05.091Z,95022.00
2023-03-16T18:59:04.702Z,95027.00
2023-03-16T19:03:04.359Z,95029.00
2023-03-16T19:07:03.968Z,95033.00
2023-03-16T19:11:03.653Z,95041.00
2023-03-16T19:15:03.269Z,95039.00
2023-03-16T19:19:02.929Z,95043.00
2023-03-16T19:23:02.645Z,95043.00
2023-03-16T19:27:02.399Z,95043.00
2023-03-16T19:31:02.093Z,95049.00
2023-03-16T19:35:01.837Z,95053.00
2023-03-16T19:39:01.531Z,95049.00
2023-03-16T19:43:01.279Z,95057.00
2023-03-16T19:47:01.022Z,95057.00
2023-03-16T19:51:00.744Z,95055.00
2023-03-16T19:55:00.484Z,95059.00
2023-03-16T19:59:00.226Z,95065.00
2023-03-16T20:02:59.954Z,95061.00
2023-03-16T20:06:59.803Z,95065.00
2023-03-16T20:10:59.491Z,95069.00
2023-03-16T20:14:59.230Z,95067.00
2023-03-16T20:18:58.977Z,95071.00
2023-03-16T20:22:58.800Z,95074.00
2023-03-16T20:26:58.557Z,95073.00
2023-03-16T20:30:58.426Z,95076.00
2023-03-16T20:34:58.123Z,95080.00
2023-03-16T20:38:57.896Z,95084.00
2023-03-16T20:42:57.668Z,95090.00
2023-03-16T20:46:57.462Z,95090.00
2023-03-16T20:50:57.246Z,95094.00
2023-03-16T20:54:57.031Z,95102.00
2023-03-16T20:58:56.805Z,95098.00
2023-03-16T21:02:56.534Z,95100.00
2023-03-16T21:06:56.360Z,95102.00
2023-03-16T21:10:56.135Z,95106.00
2023-03-16T21:14:55.915Z,95108.00
2023-03-16T21:18:55.747Z,95104.00
2023-03-16T21:22:55.525Z,95114.00
2023-03-16T21:26:55.289Z,95116.00
2023-03-16T21:30:55.164Z,95110.00
2023-03-16T21:34:54.926Z,95110.00
2023-03-16T21:38:54.752Z,95120.00
2023-03-16T21:42:54.535Z,95118.00
2023-03-16T21:46:54.456Z,95106.00
2023-03-16T21:50:54.135Z,95120.00
2023-03-16T21:54:53.946Z,95118.00
2023-03-16T21:58:53.738Z,95114.00
2023-03-16T22:02:53.704Z,95110.00
2023-03-16T22:06:53.360Z,95110.00
2023-03-16T22:10:53.208Z,95106.00
2023-03-16T22:14:52.987Z,95108.00
2023-03-16T22:18:52.772Z,95112.00
2023-03-16T22:22:52.594Z,95106.00
2023-03-16T22:26:52.360Z,95100.00
2023-03-16T22:30:52.189Z,95106.00
2023-03-16T22:34:52.034Z,95100.00
2023-03-16T22:38:51.871Z,95104.00
2023-03-16T22:42:51.697Z,95104.00
2023-03-16T22:46:51.593Z,95100.00
2023-03-16T22:50:51.439Z,95100.00
2023-03-16T22:54:51.323Z,95096.00
2023-03-16T22:58:51.211Z,95088.00
2023-03-16T23:02:51.053Z,95082.00
2023-03-16T23:06:50.913Z,95088.00
2023-03-16T23:10:50.769Z,95078.00
2023-03-16T23:14:50.681Z,95082.00
2023-03-16T23:18:50.842Z,95084.00
2023-03-16T23:22:50.488Z,95088.00
2023-03-16T23:26:50.383Z,95078.00
2023-03-16T23:30:50.331Z,95092.00
2023-03-16T23:34:50.188Z,95092.00
2023-03-16T23:38:50.081Z,95084.00
2023-03-16T23:42:50.016Z,95078.00
2023-03-16T23:46:49.903Z,95090.00
2023-03-16T23:50:49.789Z,95078.00
2023-03-16T23:54:49.674Z,95076.00
2023-03-16T23:58:49.610Z,95069.00
